createdAt,value
2023-04-15T00:00:39.241Z,437.00
2023-04-15T00:04:39.310Z,435.00
2023-04-15T00:08:39.245Z,436.00
2023-04-15T00:12:38.850Z,432.00
2023-04-15T00:16:39.350Z,429.00
2023-04-15T00:20:39.242Z,431.00
2023-04-15T00:24:39.269Z,435.00
2023-04-15T00:28:38.905Z,434.00
2023-04-15T00:32:39.049Z,436.00
2023-04-15T00:36:39.345Z,438.00
2023-04-15T00:40:39.271Z,434.00
2023-04-15T00:44:39.269Z,436.00
2023-04-15T00:48:39.037Z,434.00
2023-04-15T00:52:39.116Z,434.00
2023-04-15T00:56:39.726Z,433.00
2023-04-15T01:00:39.230Z,428.00
2023-04-15T01:04:39.399Z,430.00
2023-04-15T01:08:39.143Z,433.00
2023-04-15T01:12:39.108Z,435.00
2023-04-15T01:16:39.202Z,438.00
2023-04-15T01:20:39.312Z,441.00
2023-04-15T01:24:39.763Z,438.00
2023-04-15T01:28:39.378Z,435.00
2023-04-15T01:32:39.839Z,436.00
2023-04-15T01:36:39.770Z,439.00
2023-04-15T01:40:39.794Z,432.00
2023-04-15T01:44:39.795Z,434.00
2023-04-15T01:48:39.411Z,439.00
2023-04-15T01:52:39.494Z,437.00
2023-04-15T01:56:39.790Z,432.00
2023-04-15T02:00:39.808Z,432.00
2023-04-15T02:04:39.824Z,434.00
2023-04-15T02:08:39.678Z,433.00
2023-04-15T02:12:39.776Z,429.00
2023-04-15T02:16:40.336Z,435.00
2023-04-15T02:20:40.275Z,433.00
2023-04-15T02:24:39.842Z,435.00
2023-04-15T02:28:39.873Z,431.00
2023-04-15T02:32:40.480Z,431.00
2023-04-15T02:36:39.955Z,431.00
2023-04-15T02:40:40.322Z,433.00
2023-04-15T02:44:40.399Z,433.00
2023-04-15T02:48:40.117Z,433.00
2023-04-15T02:52:40.298Z,434.00
2023-04-15T02:56:40.308Z,434.00
2023-04-15T03:00:52.313Z,432.00
2023-04-15T03:04:52.800Z,438.00
2023-04-15T03:08:40.127Z,436.00
2023-04-15T03:12:40.295Z,438.00
2023-04-15T03:16:40.088Z,436.00
2023-04-15T03:20:40.166Z,434.00
2023-04-15T03:24:50.746Z,439.00
2023-04-15T03:28:39.981Z,442.00
2023-04-15T03:32:40.028Z,439.00
2023-04-15T03:36:39.941Z,440.00
2023-04-15T03:40:39.874Z,453.00
2023-04-15T03:44:39.996Z,447.00
2023-04-15T03:48:40.149Z,440.00
2023-04-15T03:52:40.347Z,443.00
2023-04-15T03:56:40.535Z,436.00
2023-04-15T04:00:40.634Z,435.00
2023-04-15T04:04:40.799Z,436.00
2023-04-15T04:08:41.042Z,438.00
2023-04-15T04:12:41.384Z,440.00
2023-04-15T04:16:41.348Z,435.00
2023-04-15T04:20:41.383Z,442.00
2023-04-15T04:24:41.517Z,446.00
2023-04-15T04:28:41.839Z,450.00
2023-04-15T04:32:41.792Z,453.00
2023-04-15T04:36:41.864Z,454.00
2023-04-15T04:40:41.980Z,449.00
2023-04-15T04:44:42.078Z,436.00
2023-04-15T04:48:42.365Z,434.00
2023-04-15T04:52:42.380Z,431.00
2023-04-15T04:56:42.365Z,429.00
2023-04-15T05:00:42.425Z,437.00
2023-04-15T05:04:42.568Z,440.00
2023-04-15T05:08:42.730Z,442.00
2023-04-15T05:12:43.503Z,442.00
2023-04-15T05:16:43.490Z,440.00
2023-04-15T05:20:43.227Z,436.00
2023-04-15T05:24:43.530Z,434.00
2023-04-15T05:28:43.875Z,438.00
2023-04-15T05:32:44.057Z,440.00
2023-04-15T05:36:43.892Z,438.00
2023-04-15T05:40:44.074Z,434.00
2023-04-15T05:44:44.386Z,435.00
2023-04-15T05:48:44.392Z,434.00
2023-04-15T05:52:44.889Z,439.00
2023-04-15T05:56:44.678Z,434.00
2023-04-15T06:00:44.831Z,437.00
2023-04-15T06:04:45.378Z,438.00
2023-04-15T06:08:56.916Z,434.00
2023-04-15T06:12:45.013Z,425.00
2023-04-15T06:21:04.970Z,427.00
2023-04-15T06:25:15.244Z,431.00
2023-04-15T06:29:04.953Z,431.00
2023-04-15T06:33:05.217Z,435.00
2023-04-15T06:37:06.324Z,434.00
2023-04-15T06:41:04.886Z,438.00
2023-04-15T06:45:15.250Z,438.00
2023-04-15T06:49:04.773Z,434.00
2023-04-15T06:53:04.741Z,438.00
2023-04-15T06:57:04.707Z,424.00
2023-04-15T07:01:04.703Z,433.00
2023-04-15T07:05:04.792Z,430.00
2023-04-15T07:09:05.700Z,434.00
2023-04-15T07:13:05.272Z,432.00
2023-04-15T07:17:04.849Z,435.00
2023-04-15T07:21:04.672Z,413.00
2023-04-15T07:33:44.216Z,435.00
2023-04-15T07:37:44.198Z,432.00
2023-04-15T07:41:44.267Z,435.00
2023-04-15T07:45:44.455Z,430.00
2023-04-15T07:54:17.125Z,424.00
2023-04-15T07:58:04.422Z,426.00
2023-04-15T08:02:04.392Z,432.00
2023-04-15T08:06:04.631Z,433.00
2023-04-15T08:10:04.796Z,432.00
2023-04-15T08:14:04.323Z,432.00
2023-04-15T08:18:04.634Z,430.00
2023-04-15T08:22:04.143Z,430.00
2023-04-15T08:26:04.169Z,422.00
2023-04-15T08:30:05.076Z,421.00
2023-04-15T08:34:04.190Z,420.00
2023-04-15T08:38:03.998Z,429.00
2023-04-15T08:42:03.913Z,424.00
2023-04-15T08:46:04.652Z,424.00
2023-04-15T08:50:04.092Z,424.00
2023-04-15T08:54:04.127Z,424.00
2023-04-15T08:58:04.149Z,425.00
2023-04-15T09:02:03.882Z,430.00
2023-04-15T09:14:43.590Z,426.00
2023-04-15T09:18:53.886Z,433.00
2023-04-15T09:22:43.483Z,435.00
2023-04-15T09:26:43.881Z,430.00
2023-04-15T09:30:43.446Z,422.00
2023-04-15T09:34:43.859Z,426.00
2023-04-15T09:38:43.410Z,423.00
2023-04-15T09:42:43.461Z,421.00
2023-04-15T09:46:43.702Z,422.00
2023-04-15T09:55:18.176Z,418.00
2023-04-15T09:59:13.621Z,427.00
2023-04-15T10:03:03.441Z,409.00
2023-04-15T10:07:03.615Z,420.00
2023-04-15T10:11:03.290Z,433.00
2023-04-15T10:15:03.704Z,435.00
2023-04-15T10:19:03.415Z,429.00
2023-04-15T10:23:03.343Z,427.00
2023-04-15T10:27:03.633Z,422.00
2023-04-15T10:31:03.709Z,424.00
2023-04-15T10:35:03.629Z,428.00
2023-04-15T10:39:03.635Z,426.00
2023-04-15T10:43:03.271Z,434.00
2023-04-15T10:47:03.111Z,428.00
2023-04-15T10:51:03.093Z,424.00
2023-04-15T10:55:03.058Z,427.00
2023-04-15T11:16:22.583Z,424.00
2023-04-15T11:20:22.899Z,427.00
2023-04-15T11:24:22.919Z,424.00
2023-04-15T11:28:22.426Z,421.00
2023-04-15T11:32:22.450Z,427.00
2023-04-15T11:36:22.396Z,423.00
2023-04-15T11:40:22.498Z,419.00
2023-04-15T11:44:22.285Z,416.00
2023-04-15T11:48:22.333Z,419.00
2023-04-15T11:52:22.619Z,423.00
2023-04-15T11:56:22.543Z,417.00
2023-04-15T12:00:22.953Z,418.00
2023-04-15T12:04:25.175Z,420.00
2023-04-15T12:08:22.421Z,417.00
2023-04-15T12:12:22.418Z,415.00
2023-04-15T12:16:22.408Z,408.00
2023-04-15T12:20:22.509Z,418.00
2023-04-15T12:24:22.310Z,407.00
2023-04-15T12:28:22.474Z,413.00
2023-04-15T12:32:22.318Z,411.00
2023-04-15T12:36:22.502Z,414.00
2023-04-15T12:42:00.683Z,425.00
2023-04-15T12:46:00.845Z,424.00
2023-04-15T12:50:00.444Z,427.00
2023-04-15T12:54:00.480Z,429.00
2023-04-15T12:58:00.759Z,419.00
2023-04-15T13:06:20.108Z,423.00
2023-04-15T13:10:20.074Z,421.00
2023-04-15T13:14:19.992Z,422.00
2023-04-15T13:18:20.493Z,427.00
2023-04-15T13:22:20.330Z,428.00
2023-04-15T13:26:19.930Z,432.00
2023-04-15T13:30:19.869Z,431.00
2023-04-15T13:34:20.491Z,428.00
2023-04-15T13:38:19.835Z,420.00
2023-04-15T13:42:19.790Z,423.00
2023-04-15T13:46:19.939Z,429.00
2023-04-15T13:50:19.725Z,430.00
2023-04-15T13:54:19.880Z,419.00
2023-04-15T13:58:19.857Z,402.00
2023-04-15T14:02:19.903Z,426.00
2023-04-15T14:06:19.869Z,413.00
2023-04-15T14:10:19.600Z,423.00
2023-04-15T14:14:19.846Z,424.00
2023-04-15T14:18:19.890Z,418.00
2023-04-15T14:22:19.863Z,418.00
2023-04-15T14:26:19.413Z,415.00
2023-04-15T14:30:19.346Z,423.00
2023-04-15T14:41:15.880Z,423.00
2023-04-15T15:04:07.832Z,428.00
2023-04-15T15:07:57.460Z,419.00
2023-04-15T15:11:57.485Z,423.00
2023-04-15T15:15:57.070Z,422.00
2023-04-15T15:19:57.517Z,428.00
2023-04-15T15:23:57.281Z,422.00
2023-04-15T15:27:57.553Z,422.00
2023-04-15T15:31:58.074Z,416.00
2023-04-15T15:35:57.952Z,412.00
2023-04-15T15:39:58.460Z,407.00
2023-04-15T15:43:58.606Z,406.00
2023-04-15T15:47:58.528Z,409.00
2023-04-15T15:51:58.643Z,412.00
2023-04-15T16:07:48.881Z,415.00
2023-04-15T16:11:48.791Z,410.00
2023-04-15T16:15:48.821Z,419.00
2023-04-15T16:19:56.851Z,405.00
2023-04-15T16:23:49.771Z,421.00
2023-04-15T16:28:00.882Z,418.00
2023-04-15T16:31:49.719Z,411.00
2023-04-15T16:35:48.807Z,420.00
2023-04-15T16:39:48.828Z,417.00
2023-04-15T16:43:48.933Z,429.00
2023-04-15T16:52:34.843Z,432.00
2023-04-15T16:56:34.936Z,434.00
2023-04-15T17:00:35.101Z,422.00
2023-04-15T17:08:54.757Z,427.00
2023-04-15T17:12:54.835Z,429.00
2023-04-15T17:16:54.722Z,426.00
2023-04-15T17:20:54.520Z,423.00
2023-04-15T17:24:54.661Z,430.00
2023-04-15T17:28:54.791Z,430.00
2023-04-15T17:32:54.862Z,430.00
2023-04-15T17:36:54.611Z,424.00
2023-04-15T17:40:54.641Z,418.00
2023-04-15T17:44:54.996Z,407.00
2023-04-15T17:48:54.924Z,419.00
2023-04-15T17:52:54.638Z,421.00
2023-04-15T17:56:54.773Z,420.00
2023-04-15T18:00:54.805Z,419.00
2023-04-15T18:04:55.985Z,421.00
2023-04-15T18:17:34.885Z,431.00
2023-04-15T18:21:34.602Z,433.00
2023-04-15T18:25:35.041Z,430.00
2023-04-15T18:29:34.541Z,434.00
2023-04-15T18:33:35.154Z,429.00
2023-04-15T18:37:34.601Z,426.00
2023-04-15T18:41:34.505Z,428.00
2023-04-15T18:45:34.512Z,427.00
2023-04-15T18:49:34.545Z,421.00
2023-04-15T18:53:34.518Z,427.00
2023-04-15T18:57:34.840Z,430.00
2023-04-15T19:01:34.423Z,428.00
2023-04-15T19:05:34.571Z,427.00
2023-04-15T19:09:34.236Z,427.00
2023-04-15T19:13:34.628Z,436.00
2023-04-15T19:17:34.172Z,437.00
2023-04-15T19:21:34.299Z,432.00
2023-04-15T19:25:35.008Z,434.00
2023-04-15T19:29:34.746Z,433.00
2023-04-15T19:33:35.026Z,428.00
2023-04-15T19:37:48.884Z,424.00
2023-04-15T19:45:55.204Z,419.00
2023-04-15T19:49:55.027Z,423.00
2023-04-15T19:53:55.101Z,424.00
2023-04-15T19:57:54.732Z,425.00
2023-04-15T20:01:55.264Z,425.00
2023-04-15T20:05:55.068Z,425.00
2023-04-15T20:09:54.642Z,429.00
2023-04-15T20:13:55.065Z,432.00
2023-04-15T20:17:54.583Z,429.00
2023-04-15T20:21:54.583Z,430.00
2023-04-15T20:25:54.557Z,430.00
2023-04-15T20:29:54.487Z,427.00
2023-04-15T20:33:54.547Z,422.00
2023-04-15T20:37:54.437Z,424.00
2023-04-15T20:41:54.373Z,424.00
2023-04-15T20:45:54.620Z,423.00
2023-04-15T20:49:54.535Z,427.00
2023-04-15T20:53:54.244Z,426.00
2023-04-15T20:57:54.293Z,425.00
2023-04-15T21:01:54.659Z,428.00
2023-04-15T21:05:54.746Z,424.00
2023-04-15T21:09:54.266Z,423.00
2023-04-15T21:13:54.293Z,426.00
2023-04-15T21:17:54.580Z,428.00
2023-04-15T21:21:54.692Z,432.00
2023-04-15T21:25:55.074Z,429.00
2023-04-15T21:29:54.834Z,431.00
2023-04-15T21:33:54.861Z,427.00
2023-04-15T21:37:55.112Z,425.00
2023-04-15T21:41:55.121Z,417.00
2023-04-15T21:46:24.176Z,421.00
2023-04-15T21:49:56.601Z,417.00
2023-04-15T21:53:55.260Z,421.00
2023-04-15T21:57:55.375Z,422.00
2023-04-15T22:01:56.190Z,420.00
2023-04-15T22:05:56.089Z,422.00
2023-04-15T22:09:56.091Z,425.00
2023-04-15T22:13:56.133Z,422.00
2023-04-15T22:17:56.583Z,420.00
2023-04-15T22:21:56.689Z,425.00
2023-04-15T22:25:57.196Z,427.00
2023-04-15T22:29:56.861Z,422.00
2023-04-15T22:33:57.212Z,422.00
2023-04-15T22:37:57.667Z,425.00
2023-04-15T22:41:57.570Z,427.00
2023-04-15T22:45:58.322Z,432.00
2023-04-15T22:49:57.933Z,431.00
2023-04-15T22:53:58.039Z,430.00
2023-04-15T22:57:58.616Z,432.00
2023-04-15T23:01:58.645Z,435.00
2023-04-15T23:05:59.087Z,433.00
2023-04-15T23:14:04.665Z,430.00
2023-04-15T23:18:03.188Z,434.00
2023-04-15T23:22:03.142Z,430.00
2023-04-15T23:26:03.162Z,434.00
2023-04-15T23:30:02.868Z,431.00
2023-04-15T23:34:03.137Z,434.00
2023-04-15T23:38:03.173Z,437.00
2023-04-15T23:42:03.158Z,438.00
2023-04-15T23:46:03.103Z,434.00
2023-04-15T23:50:02.909Z,436.00
2023-04-15T23:54:03.138Z,440.00
2023-04-15T23:58:03.109Z,438.00
